createdAt,value
2022-12-05T00:02:03.279Z,4.50
2022-12-05T00:04:33.691Z,4.50
2022-12-05T00:07:01.791Z,4.50
2022-12-05T00:09:29.839Z,4.50
2022-12-05T00:11:57.953Z,4.50
2022-12-05T00:14:25.948Z,4.50
2022-12-05T00:16:55.500Z,4.50
2022-12-05T00:19:23.753Z,4.50
2022-12-05T00:21:51.877Z,4.50
2022-12-05T00:24:20.189Z,4.60
2022-12-05T00:26:48.370Z,4.60
2022-12-05T00:29:16.424Z,4.60
2022-12-05T00:31:44.573Z,4.60
2022-12-05T00:34:14.261Z,4.60
2022-12-05T00:36:45.430Z,4.60
2022-12-05T00:39:14.282Z,4.60
2022-12-05T00:41:45.161Z,4.60
2022-12-05T00:44:16.129Z,4.60
2022-12-05T00:46:46.732Z,4.60
2022-12-05T00:49:16.086Z,4.60
2022-12-05T00:51:44.404Z,4.60
2022-12-05T00:54:13.449Z,4.60
2022-12-05T00:56:41.607Z,4.70
2022-12-05T00:59:11.968Z,4.70
2022-12-05T01:01:40.898Z,4.70
2022-12-05T01:04:11.989Z,4.70
2022-12-05T01:06:41.417Z,4.70
2022-12-05T01:09:09.861Z,4.70
2022-12-05T01:11:41.478Z,4.70
2022-12-05T01:14:10.123Z,4.70
2022-12-05T01:16:39.535Z,4.70
2022-12-05T01:19:09.524Z,4.70
2022-12-05T01:21:37.476Z,4.80
2022-12-05T01:24:07.207Z,4.80
2022-12-05T01:26:35.237Z,4.80
2022-12-05T01:29:03.825Z,4.80
2022-12-05T01:31:33.267Z,4.80
2022-12-05T01:34:02.260Z,4.70
2022-12-05T01:36:30.304Z,4.80
2022-12-05T01:39:04.445Z,4.80
2022-12-05T01:41:37.316Z,4.80
2022-12-05T01:44:06.904Z,4.80
2022-12-05T01:46:35.778Z,4.80
2022-12-05T01:49:06.141Z,4.80
2022-12-05T01:51:34.782Z,4.80
2022-12-05T01:54:03.200Z,4.80
2022-12-05T01:56:33.647Z,4.80
2022-12-05T01:59:06.674Z,4.80
2022-12-05T02:01:37.431Z,4.80
2022-12-05T02:04:05.790Z,4.80
2022-12-05T02:06:34.134Z,4.80
2022-12-05T02:09:02.404Z,4.80
2022-12-05T02:11:31.238Z,4.80
2022-12-05T02:14:16.867Z,4.80
2022-12-05T02:16:48.811Z,4.80
2022-12-05T02:19:39.771Z,4.80
2022-12-05T02:22:25.893Z,4.80
2022-12-05T02:25:00.447Z,4.80
2022-12-05T02:27:46.648Z,4.80
2022-12-05T02:30:17.659Z,4.80
2022-12-05T02:32:50.646Z,4.80
2022-12-05T02:35:24.653Z,5.20
2022-12-05T02:37:55.562Z,4.80
2022-12-05T02:40:28.632Z,4.80
2022-12-05T02:43:00.805Z,4.80
2022-12-05T02:45:31.160Z,4.80
2022-12-05T02:48:00.417Z,4.80
2022-12-05T02:50:31.130Z,4.80
2022-12-05T02:53:01.103Z,4.80
2022-12-05T02:55:30.073Z,4.80
2022-12-05T02:58:01.185Z,4.80
2022-12-05T03:00:30.590Z,4.80
2022-12-05T03:03:00.555Z,4.80
2022-12-05T03:05:33.475Z,4.90
2022-12-05T03:08:03.640Z,4.80
2022-12-05T03:10:32.876Z,4.80
2022-12-05T03:13:04.228Z,4.80
2022-12-05T03:15:36.022Z,4.80
2022-12-05T03:18:10.451Z,4.80
2022-12-05T03:20:40.859Z,4.80
2022-12-05T03:23:11.355Z,4.80
2022-12-05T03:25:48.082Z,4.90
2022-12-05T03:28:20.031Z,4.90
2022-12-05T03:30:52.838Z,4.90
2022-12-05T03:33:22.959Z,4.90
2022-12-05T03:35:54.383Z,4.80
2022-12-05T03:38:26.454Z,5.00
2022-12-05T03:40:56.565Z,4.90
2022-12-05T03:43:30.493Z,4.90
2022-12-05T03:46:03.906Z,4.90
2022-12-05T03:48:35.937Z,4.90
2022-12-05T03:51:04.997Z,4.90
2022-12-05T03:53:35.526Z,5.30
2022-12-05T03:56:06.305Z,4.90
2022-12-05T03:58:36.695Z,4.80
2022-12-05T04:01:07.695Z,4.90
2022-12-05T04:03:40.426Z,4.90
2022-12-05T04:06:13.545Z,4.80
2022-12-05T04:08:44.130Z,4.90
2022-12-05T04:11:14.498Z,4.90
2022-12-05T04:13:48.820Z,4.90
2022-12-05T04:16:37.577Z,4.90
2022-12-05T04:19:12.797Z,4.90
2022-12-05T04:21:41.401Z,5.00
2022-12-05T04:24:28.905Z,5.00
2022-12-05T04:27:03.243Z,5.00
2022-12-05T04:29:33.335Z,5.00
2022-12-05T04:32:07.532Z,5.00
2022-12-05T04:34:36.386Z,5.00
2022-12-05T04:37:06.147Z,5.00
2022-12-05T04:39:36.464Z,5.00
2022-12-05T04:42:06.398Z,5.00
2022-12-05T04:44:37.648Z,5.00
2022-12-05T04:47:09.426Z,5.00
2022-12-05T04:49:38.792Z,5.00
2022-12-05T04:52:08.978Z,5.00
2022-12-05T04:54:39.642Z,5.00
2022-12-05T04:57:09.159Z,5.00
2022-12-05T04:59:37.290Z,5.00
2022-12-05T05:02:10.135Z,5.00
2022-12-05T05:04:45.748Z,5.00
2022-12-05T05:07:14.653Z,5.00
2022-12-05T05:09:43.078Z,5.00
2022-12-05T05:12:17.238Z,5.00
2022-12-05T05:14:46.873Z,5.10
2022-12-05T05:17:16.723Z,5.10
2022-12-05T05:19:44.675Z,5.10
2022-12-05T05:22:12.728Z,5.10
2022-12-05T05:24:40.780Z,5.00
2022-12-05T05:27:08.766Z,5.10
2022-12-05T05:29:36.739Z,5.10
2022-12-05T05:32:04.786Z,5.10
2022-12-05T05:34:36.870Z,5.10
2022-12-05T05:37:08.382Z,5.10
2022-12-05T05:39:36.732Z,5.20
2022-12-05T05:42:04.923Z,5.20
2022-12-05T05:44:33.000Z,5.20
2022-12-05T05:47:01.060Z,5.20
2022-12-05T05:49:30.309Z,5.20
2022-12-05T05:51:59.681Z,5.20
2022-12-05T05:54:29.558Z,5.20
2022-12-05T05:56:57.543Z,5.20
2022-12-05T05:59:25.532Z,5.20
2022-12-05T06:01:53.525Z,5.20
2022-12-05T06:04:25.821Z,5.30
2022-12-05T06:06:54.000Z,5.20
2022-12-05T06:09:23.440Z,5.30
2022-12-05T06:11:52.603Z,5.30
2022-12-05T06:14:20.642Z,5.30
2022-12-05T06:16:51.114Z,5.30
2022-12-05T06:19:19.153Z,5.30
2022-12-05T06:21:49.422Z,5.30
2022-12-05T06:24:17.770Z,5.30
2022-12-05T06:27:07.370Z,5.30
2022-12-05T06:29:38.019Z,5.30
2022-12-05T06:32:06.423Z,5.40
2022-12-05T06:34:35.653Z,5.40
2022-12-05T06:37:06.187Z,5.40
2022-12-05T06:39:36.276Z,5.40
2022-12-05T06:42:04.455Z,5.40
2022-12-05T06:44:36.715Z,5.40
2022-12-05T06:47:04.859Z,5.40
2022-12-05T06:49:37.853Z,5.40
2022-12-05T06:52:06.246Z,5.40
2022-12-05T06:54:34.358Z,5.40
2022-12-05T06:57:02.387Z,5.40
2022-12-05T06:59:30.371Z,5.40
2022-12-05T07:01:58.806Z,5.50
2022-12-05T07:04:26.883Z,5.40
2022-12-05T07:06:55.827Z,5.50
2022-12-05T07:09:44.340Z,5.50
2022-12-05T07:12:19.190Z,5.50
2022-12-05T07:14:49.276Z,5.50
2022-12-05T07:17:19.398Z,5.50
2022-12-05T07:19:48.470Z,5.50
2022-12-05T07:22:16.609Z,5.50
2022-12-05T07:24:44.850Z,5.50
2022-12-05T07:27:12.870Z,5.50
2022-12-05T07:29:40.922Z,5.50
2022-12-05T07:32:09.212Z,5.50
2022-12-05T07:34:42.217Z,5.80
2022-12-05T07:37:10.252Z,5.50
2022-12-05T07:39:38.247Z,5.50
2022-12-05T07:42:06.326Z,5.50
2022-12-05T07:44:34.894Z,5.50
2022-12-05T07:47:02.959Z,5.50
2022-12-05T07:49:33.000Z,5.50
2022-12-05T07:52:02.383Z,5.50
2022-12-05T07:54:30.369Z,5.50
2022-12-05T07:56:58.374Z,5.50
2022-12-05T07:59:26.391Z,5.50
2022-12-05T08:02:00.174Z,5.50
2022-12-05T08:04:28.268Z,5.50
2022-12-05T08:06:56.655Z,5.50
2022-12-05T08:09:26.103Z,5.50
2022-12-05T08:11:54.126Z,5.50
2022-12-05T08:15:00.522Z,5.50
2022-12-05T08:17:30.503Z,5.50
2022-12-05T08:19:58.584Z,5.50
2022-12-05T08:22:26.756Z,5.50
2022-12-05T08:24:58.568Z,5.50
2022-12-05T08:27:26.537Z,5.50
2022-12-05T08:29:55.391Z,5.50
2022-12-05T08:32:27.111Z,5.50
2022-12-05T08:34:55.083Z,5.50
2022-12-05T08:37:23.041Z,5.50
2022-12-05T08:39:50.959Z,5.50
2022-12-05T08:42:20.427Z,5.50
2022-12-05T08:44:51.051Z,5.40
2022-12-05T08:47:19.039Z,5.50
2022-12-05T08:49:46.995Z,5.40
2022-12-05T08:52:15.151Z,5.40
2022-12-05T08:54:43.148Z,5.40
2022-12-05T08:57:11.231Z,5.40
2022-12-05T08:59:42.855Z,5.50
2022-12-05T09:02:13.640Z,5.40
2022-12-05T09:04:56.125Z,5.40
2022-12-05T09:07:27.191Z,5.40
2022-12-05T09:09:55.845Z,5.40
2022-12-05T09:12:23.995Z,5.40
2022-12-05T09:14:53.471Z,5.50
2022-12-05T09:17:27.054Z,5.50
2022-12-05T09:19:55.075Z,5.40
2022-12-05T09:22:26.112Z,5.40
2022-12-05T09:24:54.113Z,5.40
2022-12-05T09:27:22.173Z,5.40
2022-12-05T09:29:50.179Z,5.40
2022-12-05T09:32:19.600Z,5.40
2022-12-05T09:34:47.622Z,5.50
2022-12-05T09:37:37.417Z,5.50
2022-12-05T09:40:04.235Z,5.50
2022-12-05T09:42:50.338Z,5.50
2022-12-05T09:45:23.311Z,5.50
2022-12-05T09:47:56.313Z,5.90
2022-12-05T09:50:28.405Z,5.50
2022-12-05T09:53:12.334Z,5.40
2022-12-05T09:55:45.949Z,5.40
2022-12-05T09:58:20.803Z,5.50
2022-12-05T10:00:49.446Z,5.50
2022-12-05T10:03:25.412Z,5.50
2022-12-05T10:05:57.653Z,5.50
2022-12-05T10:08:27.363Z,5.50
2022-12-05T10:10:58.920Z,5.50
2022-12-05T10:13:42.561Z,5.50
2022-12-05T10:16:12.382Z,5.50
2022-12-05T10:18:43.752Z,5.50
2022-12-05T10:21:18.006Z,5.50
2022-12-05T10:23:59.741Z,5.50
2022-12-05T10:26:30.205Z,5.50
2022-12-05T10:29:01.178Z,5.50
2022-12-05T10:31:36.197Z,5.50
2022-12-05T10:34:10.379Z,5.50
2022-12-05T10:36:38.318Z,5.50
2022-12-05T10:39:11.218Z,5.50
2022-12-05T10:41:39.677Z,5.50
2022-12-05T10:44:07.802Z,5.50
2022-12-05T10:46:35.880Z,5.50
2022-12-05T10:49:03.926Z,5.50
2022-12-05T10:51:37.699Z,5.50
2022-12-05T10:54:14.022Z,5.50
2022-12-05T10:56:43.972Z,5.50
2022-12-05T10:59:12.904Z,5.50
2022-12-05T11:01:48.490Z,5.50
2022-12-05T11:04:25.535Z,5.50
2022-12-05T11:06:57.675Z,5.50
2022-12-05T11:09:27.124Z,5.50
2022-12-05T11:12:00.675Z,5.50
2022-12-05T11:14:29.780Z,5.50
2022-12-05T11:17:04.855Z,5.50
2022-12-05T11:19:33.489Z,5.50
2022-12-05T11:22:03.616Z,5.50
2022-12-05T11:24:33.050Z,5.50
2022-12-05T11:27:02.614Z,5.50
2022-12-05T11:29:32.630Z,5.50
2022-12-05T11:32:02.555Z,5.50
2022-12-05T11:34:37.369Z,5.50
2022-12-05T11:37:10.893Z,5.50
2022-12-05T11:39:39.104Z,5.40
2022-12-05T11:42:24.982Z,5.50
2022-12-05T11:45:10.020Z,5.40
2022-12-05T11:47:45.796Z,5.40
2022-12-05T11:50:22.313Z,5.40
2022-12-05T11:52:56.562Z,5.40
2022-12-05T11:55:29.339Z,5.40
2022-12-05T11:58:03.081Z,5.40
2022-12-05T12:00:37.551Z,5.40
2022-12-05T12:03:32.620Z,5.40
2022-12-05T12:06:20.452Z,5.40
2022-12-05T12:08:55.475Z,5.40
2022-12-05T12:11:25.902Z,5.40
2022-12-05T12:13:58.458Z,5.40
2022-12-05T12:16:32.199Z,5.40
2022-12-05T12:19:06.697Z,5.40
2022-12-05T12:21:39.399Z,5.50
2022-12-05T12:24:16.833Z,5.50
2022-12-05T12:26:50.547Z,5.40
2022-12-05T12:29:24.029Z,5.40
2022-12-05T12:31:56.822Z,5.40
2022-12-05T12:34:39.117Z,5.40
2022-12-05T12:37:14.769Z,5.40
2022-12-05T12:39:49.311Z,5.40
2022-12-05T12:42:20.993Z,5.40
2022-12-05T12:45:02.984Z,5.40
2022-12-05T12:47:37.473Z,5.30
2022-12-05T12:50:11.991Z,5.30
2022-12-05T12:52:50.319Z,5.30
2022-12-05T12:55:22.188Z,5.30
2022-12-05T12:58:04.132Z,5.30
2022-12-05T13:00:38.391Z,5.30
2022-12-05T13:03:11.797Z,5.40
2022-12-05T13:05:43.604Z,5.30
2022-12-05T13:08:15.607Z,5.30
2022-12-05T13:10:45.850Z,5.30
2022-12-05T13:13:15.759Z,5.30
2022-12-05T13:15:47.769Z,5.30
2022-12-05T13:18:18.292Z,5.30
2022-12-05T13:20:47.888Z,5.20
2022-12-05T13:23:17.207Z,5.20
2022-12-05T13:25:50.367Z,5.20
2022-12-05T13:28:26.167Z,5.20
2022-12-05T13:31:02.618Z,5.20
2022-12-05T13:33:32.483Z,5.20
2022-12-05T13:36:23.050Z,5.20
2022-12-05T13:39:14.160Z,5.20
2022-12-05T13:42:02.358Z,5.20
2022-12-05T13:44:33.274Z,5.10
2022-12-05T13:47:02.209Z,5.10
2022-12-05T13:49:33.800Z,5.10
2022-12-05T13:52:07.297Z,5.10
2022-12-05T13:54:35.703Z,5.10
2022-12-05T13:57:05.288Z,5.10
2022-12-05T13:59:51.960Z,5.10
2022-12-05T14:02:38.466Z,5.10
2022-12-05T14:05:32.008Z,5.10
2022-12-05T14:08:46.707Z,5.00
2022-12-05T14:11:14.814Z,5.00
2022-12-05T14:13:45.186Z,5.00
2022-12-05T14:16:46.652Z,5.00
2022-12-05T14:19:38.758Z,5.00
2022-12-05T14:22:14.247Z,5.00
2022-12-05T14:24:46.245Z,5.00
2022-12-05T14:27:18.937Z,4.90
2022-12-05T14:29:55.673Z,5.00
2022-12-05T14:32:26.119Z,5.00
2022-12-05T14:34:58.678Z,5.00
2022-12-05T14:37:29.799Z,4.90
2022-12-05T14:39:59.045Z,4.90
2022-12-05T14:42:30.583Z,4.90
2022-12-05T14:45:01.850Z,4.90
2022-12-05T14:47:31.541Z,4.90
2022-12-05T14:50:02.427Z,4.90
2022-12-05T14:52:32.224Z,4.90
2022-12-05T14:55:02.851Z,4.90
2022-12-05T14:57:32.015Z,4.90
2022-12-05T15:00:02.843Z,4.80
2022-12-05T15:02:32.282Z,4.80
2022-12-05T15:05:03.341Z,4.80
2022-12-05T15:07:33.687Z,4.80
2022-12-05T15:10:03.875Z,4.80
2022-12-05T15:12:34.675Z,4.80
2022-12-05T15:15:08.088Z,4.80
2022-12-05T15:17:40.609Z,4.80
2022-12-05T15:20:15.273Z,4.80
2022-12-05T15:22:43.524Z,4.80
2022-12-05T15:25:28.306Z,4.80
2022-12-05T15:28:00.907Z,4.70
2022-12-05T15:30:57.122Z,4.70
2022-12-05T15:33:26.309Z,4.70
2022-12-05T15:35:54.930Z,4.70
2022-12-05T15:38:27.618Z,4.80
2022-12-05T15:40:56.144Z,4.70
2022-12-05T15:43:29.062Z,4.60
2022-12-05T15:46:24.957Z,4.60
2022-12-05T15:48:55.440Z,4.60
2022-12-05T15:51:26.847Z,4.60
2022-12-05T15:53:58.101Z,4.60
2022-12-05T15:56:27.892Z,4.60
2022-12-05T15:58:58.010Z,4.60
2022-12-05T16:01:26.662Z,4.50
2022-12-05T16:03:58.053Z,4.50
2022-12-05T16:06:29.360Z,4.50
2022-12-05T16:08:58.333Z,4.50
2022-12-05T16:11:26.426Z,4.50
2022-12-05T16:14:04.257Z,4.50
2022-12-05T16:16:33.933Z,4.50
2022-12-05T16:19:06.465Z,4.50
2022-12-05T16:21:40.145Z,4.50
2022-12-05T16:24:09.233Z,4.50
2022-12-05T16:26:39.000Z,4.50
2022-12-05T16:29:08.933Z,4.50
2022-12-05T16:31:37.303Z,4.50
2022-12-05T16:34:07.666Z,4.50
2022-12-05T16:36:36.551Z,4.50
2022-12-05T16:39:05.284Z,4.50
2022-12-05T16:41:36.329Z,4.50
2022-12-05T16:44:11.504Z,4.50
2022-12-05T16:46:47.705Z,4.50
2022-12-05T16:49:31.819Z,4.40
2022-12-05T16:52:02.436Z,4.40
2022-12-05T16:54:30.434Z,4.50
2022-12-05T16:56:59.791Z,4.50
2022-12-05T16:59:32.031Z,4.40
2022-12-05T17:02:01.415Z,4.40
2022-12-05T17:04:29.550Z,4.40
2022-12-05T17:07:03.862Z,4.40
2022-12-05T17:09:31.795Z,4.40
2022-12-05T17:12:02.861Z,4.50
2022-12-05T17:14:30.851Z,4.40
2022-12-05T17:17:01.144Z,4.40
2022-12-05T17:19:29.691Z,4.40
2022-12-05T17:21:59.977Z,4.60
2022-12-05T17:24:32.490Z,4.40
2022-12-05T17:27:00.537Z,4.40
2022-12-05T17:29:33.992Z,4.40
2022-12-05T17:32:03.599Z,4.40
2022-12-05T17:34:31.659Z,4.40
2022-12-05T17:37:01.193Z,4.80
2022-12-05T17:39:29.292Z,4.40
2022-12-05T17:41:58.716Z,4.40
2022-12-05T17:44:28.466Z,4.40
2022-12-05T17:46:56.646Z,4.40
2022-12-05T17:49:25.102Z,4.40
2022-12-05T17:52:20.440Z,4.40
2022-12-05T17:54:42.246Z,4.40
2022-12-05T17:57:11.649Z,4.40
2022-12-05T17:59:39.621Z,4.30
2022-12-05T18:02:17.444Z,4.30
2022-12-05T18:04:45.629Z,4.30
2022-12-05T18:07:13.657Z,4.40
2022-12-05T18:09:43.104Z,4.30
2022-12-05T18:12:12.504Z,4.60
2022-12-05T18:14:40.462Z,4.30
2022-12-05T18:17:08.548Z,4.30
2022-12-05T18:19:59.692Z,4.30
2022-12-05T18:22:28.412Z,4.30
2022-12-05T18:24:57.338Z,4.30
2022-12-05T18:27:26.906Z,4.30
2022-12-05T18:29:54.864Z,4.30
2022-12-05T18:32:23.363Z,4.30
2022-12-05T18:34:51.776Z,4.30
2022-12-05T18:37:19.786Z,4.30
2022-12-05T18:39:47.764Z,4.30
2022-12-05T18:42:15.810Z,4.30
2022-12-05T18:44:45.155Z,4.30
2022-12-05T18:47:13.219Z,4.20
2022-12-05T18:49:41.308Z,4.30
2022-12-05T18:52:09.272Z,4.30
2022-12-05T18:54:37.211Z,4.30
2022-12-05T18:57:05.991Z,4.30
2022-12-05T18:59:34.211Z,4.30
2022-12-05T19:02:05.176Z,4.30
2022-12-05T19:04:33.319Z,4.30
2022-12-05T19:07:02.189Z,4.30
2022-12-05T19:09:31.174Z,4.30
2022-12-05T19:12:01.677Z,4.30
2022-12-05T19:14:32.982Z,4.30
2022-12-05T19:17:03.323Z,4.30
2022-12-05T19:19:32.859Z,4.30
2022-12-05T19:22:03.226Z,4.30
2022-12-05T19:24:31.219Z,4.30
2022-12-05T19:26:59.246Z,4.30
2022-12-05T19:29:27.240Z,4.30
2022-12-05T19:31:58.255Z,4.30
2022-12-05T19:34:27.471Z,4.30
2022-12-05T19:36:56.990Z,4.30
2022-12-05T19:39:30.062Z,4.10
2022-12-05T19:41:59.382Z,4.30
2022-12-05T19:44:27.376Z,4.30
2022-12-05T19:46:55.397Z,4.30
2022-12-05T19:49:26.422Z,4.30
2022-12-05T19:51:54.431Z,4.30
2022-12-05T19:54:24.245Z,4.30
2022-12-05T19:56:58.080Z,4.30
2022-12-05T19:59:26.425Z,4.30
2022-12-05T20:01:54.632Z,4.30
2022-12-05T20:04:23.893Z,4.30
2022-12-05T20:06:51.867Z,4.30
2022-12-05T20:09:21.583Z,4.30
2022-12-05T20:11:55.095Z,4.30
2022-12-05T20:14:24.419Z,4.30
2022-12-05T20:16:52.524Z,4.30
2022-12-05T20:19:20.633Z,4.30
2022-12-05T20:21:48.799Z,4.30
2022-12-05T20:24:16.833Z,4.30
2022-12-05T20:26:46.155Z,4.30
2022-12-05T20:29:15.582Z,4.30
2022-12-05T20:31:43.942Z,4.30
2022-12-05T20:34:13.434Z,4.30
2022-12-05T20:36:41.800Z,4.30
2022-12-05T20:39:12.384Z,4.30
2022-12-05T20:41:40.433Z,4.30
2022-12-05T20:44:08.780Z,4.30
2022-12-05T20:46:43.748Z,4.30
2022-12-05T20:49:12.657Z,4.30
2022-12-05T20:51:42.326Z,4.30
2022-12-05T20:54:12.632Z,4.30
2022-12-05T20:56:41.079Z,4.30
2022-12-05T20:59:10.165Z,4.30
2022-12-05T21:01:38.813Z,4.30
2022-12-05T21:04:08.940Z,4.30
2022-12-05T21:06:37.526Z,4.30
2022-12-05T21:09:06.716Z,4.30
2022-12-05T21:11:34.719Z,4.30
2022-12-05T21:14:05.848Z,4.30
2022-12-05T21:16:33.965Z,4.30
2022-12-05T21:19:01.987Z,4.30
2022-12-05T21:21:34.015Z,4.30
2022-12-05T21:24:02.734Z,4.30
2022-12-05T21:26:36.954Z,4.40
2022-12-05T21:29:05.813Z,4.40
2022-12-05T21:31:34.422Z,4.40
2022-12-05T21:34:06.558Z,4.40
2022-12-05T21:36:36.712Z,4.40
2022-12-05T21:39:05.042Z,4.50
2022-12-05T21:41:33.192Z,4.50
2022-12-05T21:44:01.458Z,4.50
2022-12-05T21:46:29.605Z,4.50
2022-12-05T21:48:57.919Z,4.50
2022-12-05T21:51:26.034Z,4.50
2022-12-05T21:53:55.472Z,4.60
2022-12-05T21:56:24.346Z,4.60
2022-12-05T21:58:52.669Z,4.60
2022-12-05T22:01:21.844Z,4.60
2022-12-05T22:03:51.813Z,4.60
2022-12-05T22:06:19.965Z,4.60
2022-12-05T22:08:48.242Z,4.60
2022-12-05T22:11:19.026Z,4.60
2022-12-05T22:13:47.504Z,4.60
2022-12-05T22:16:15.893Z,4.60
2022-12-05T22:18:43.921Z,4.60
2022-12-05T22:21:12.939Z,4.60
2022-12-05T22:23:40.920Z,4.60
2022-12-05T22:26:10.157Z,4.60
2022-12-05T22:28:39.971Z,4.60
2022-12-05T22:31:08.789Z,4.60
2022-12-05T22:33:36.942Z,4.60
2022-12-05T22:36:06.250Z,4.60
2022-12-05T22:38:36.408Z,4.60
2022-12-05T22:41:05.346Z,4.60
2022-12-05T22:43:35.417Z,4.60
2022-12-05T22:46:09.135Z,4.60
2022-12-05T22:48:37.351Z,4.60
2022-12-05T22:51:06.105Z,4.60
2022-12-05T22:53:34.300Z,4.60
2022-12-05T22:56:03.050Z,4.60
2022-12-05T22:58:31.105Z,4.60
2022-12-05T23:00:59.580Z,4.60
2022-12-05T23:03:28.968Z,4.80
2022-12-05T23:06:11.243Z,4.60
2022-12-05T23:08:39.979Z,4.60
2022-12-05T23:11:08.487Z,4.60
2022-12-05T23:13:36.911Z,4.60
2022-12-05T23:16:08.670Z,4.60
2022-12-05T23:18:46.849Z,4.60
2022-12-05T23:21:16.252Z,4.60
2022-12-05T23:23:44.688Z,4.60
2022-12-05T23:26:12.848Z,4.60
2022-12-05T23:28:40.993Z,4.60
2022-12-05T23:31:09.640Z,4.60
2022-12-05T23:33:39.053Z,4.60
2022-12-05T23:36:07.656Z,4.60
2022-12-05T23:38:36.518Z,4.60
2022-12-05T23:41:05.568Z,4.60
2022-12-05T23:43:34.330Z,4.60
2022-12-05T23:46:02.404Z,4.60
2022-12-05T23:48:30.510Z,4.60
2022-12-05T23:51:15.494Z,4.60
2022-12-05T23:53:44.925Z,4.60
2022-12-05T23:56:14.164Z,5.10
2022-12-05T23:58:42.264Z,4.60
